Hlavní strana
METAR-TAF:

METAR-TAF

Letiště :

Letiště Náměšť nad Oslavou

Náměšť nad Oslavou, Česká republika

zeměpisná šířka: 49-09-57N, zeměpisná délka: 16-07-30E, výška: 472 m

Aktuální stav počasí

Zpráva byla vytvořena před 1 hodinou a 8 minutami, v 15:00 UTC
Východní vítr 4 kt
Teplota 5°C
Vlhkost vzduchu 75%
Tlak 1031 hPa
Viditelnost 10 km a více
Skoro jasno ve výšce 2300 ft

METAR: LKNA 161500Z 10004KT 9999 FEW023 05/01 Q1031 NOSIG RMK BLU BLU

Čas: 17:08 (16:08 UTC)

Předpověď počasí

Zpráva byla vytvořena před 5 hodinami a 8 minutami, v 11:00 UTC
Předpověď platná od 16 v 12 UTC do 17 v 12 UTC
Východní vítr 8 kt
Viditelnost 10 km a více
Polojasno ve výšce 2000 ft
Změna
od 16 v 15 UTC do 16 v 17 UTC
Východoseverovýchodní vítr 8 kt
Viditelnost 10 km a více
Žádná oblačnost pod 1500 m, nevyskytují se cumulonimby.

TAF: LKNA 161100Z 1612/1712 09008KT 9999 SCT020 BECMG 1615/1617 06008KT CAVOK

Stav a předpovědi počasí z více než 4 000 letišť (zprávy METAR a TAF).

Červené a žluté tečky na mapě představují dostupné meteorologické stanice.

Když kurzor umístíte na tečku, zobrazí se název stanice.

Pak kliknutím zobrazíte stav a předpověď počasí.

Chcete-li změnit mapu, kliknutím na zelené tlačítko se znaménkem +mapu přiblížíte, kliknutím na zelené tlačítko se znaménkem – mapu oddálíte a kliknutím na zelené šipky přejdete na sousední mapy.


METAR-TAF: